Data for 01/22/2015

Time Sea-Level Adjusted Pressure Absolute Pressure Temperature Relative Humidity Dew Point   
(mb) (inHg) (mb) (inHg) (C) (F) (%) (C) (F)
00:05 1024 30.24 853 25.19 -4.9 23.1 54 -12.9 8.8
00:10 1024 30.24 853 25.19 -5.1 22.7 56 -12.5 9.4
00:15 1024 30.24 853 25.19 -5.5 22.1 55 -13.2 8.3
00:20 1024 30.24 853 25.19 -4.9 23.2 54 -12.9 8.7
00:25 1024 30.24 853 25.19 -4.6 23.7 53 -12.8 8.9
00:30 1024 30.24 853 25.19 -4.7 23.5 54 -12.7 9.2
00:35 1024 30.24 853 25.19 -5 22.9 54 -12.9 8.8
00:40 1024 30.24 853 25.19 -5.2 22.7 52 -13.5 7.6
00:45 1024 30.24 853 25.19 -4.8 23.4 52 -13.2 8.2
00:50 1024 30.24 853 25.19 -4.7 23.6 52 -13.2 8.3
00:55 1024 30.24 853 25.19 -4.7 23.5 54 -12.6 9.3
01:00 1024 30.24 853 25.19 -5.2 22.7 56 -12.6 9.4
01:05 1024 30.24 853 25.19 -5.5 22.2 55 -13.2 8.2
01:10 1024 30.24 853 25.19 -5.3 22.5 56 -12.7 9.1
01:15 1024 30.24 853 25.19 -5.6 21.9 57 -12.9 8.7
01:20 1024 30.24 853 25.19 -5.6 21.9 57 -12.8 9
01:25 1024 30.24 853 25.19 -5.6 21.8 56 -13.2 8.3
01:30 1024 30.24 853 25.19 -5.5 22.1 57 -12.8 9
01:35 1024 30.24 853 25.19 -5.5 22.1 55 -13.1 8.5
01:40 1024 30.24 853 25.19 -4.9 23.2 54 -12.8 8.9
01:45 1024 30.24 853 25.19 -4.8 23.3 55 -12.6 9.3
01:50 1024 30.24 853 25.19 -5 23 54 -12.8 8.9
01:55 1024 30.24 853 25.19 -4.9 23.1 55 -12.6 9.3
02:00 1024 30.24 853 25.19 -5.1 22.9 57 -12.4 9.7
02:05 1024 30.24 853 25.19 -5.6 21.9 59 -12.5 9.5
02:10 1024 30.24 853 25.19 -5.7 21.7 58 -12.8 8.9
02:15 1024 30.24 853 25.19 -5.5 22.1 57 -12.7 9.2
02:20 1024 30.24 853 25.19 -5.6 21.9 57 -12.8 8.9
02:25 1024 30.24 853 25.19 -5.6 22 55 -13.1 8.3
02:30 1024 30.24 853 25.19 -5.2 22.6 55 -13 8.7
02:35 1024 30.24 853 25.19 -5.1 22.8 53 -13.1 8.3
02:40 1024 30.24 853 25.19 -4.9 23.2 52 -13.2 8.2
02:45 1024 30.24 853 25.19 -4.6 23.7 52 -13.1 8.4
02:50 1024 30.24 853 25.19 -4.7 23.5 55 -12.4 9.8
02:55 1024 30.24 853 25.19 -5.6 22 58 -12.6 9.3
03:00 1024 30.24 853 25.19 -5.6 21.9 56 -13.1 8.4
03:05 1024 30.24 853 25.19 -5.2 22.7 55 -12.9 8.8
03:10 1024 30.24 853 25.19 -5.1 22.8 52 -13.5 7.6
03:15 1024 30.24 853 25.19 -5.1 22.9 59 -11.9 10.6
03:20 1024 30.24 853 25.19 -5.8 21.6 57 -12.9 8.8
03:25 1024 30.24 853 25.19 -5.8 21.6 56 -13.1 8.4
03:30 1024 30.24 853 25.19 -5.5 22.1 56 -13 8.6
03:35 1024 30.24 853 25.19 -5.4 22.3 57 -12.7 9.2
03:40 1024 30.24 853 25.19 -6.1 21.1 60 -12.6 9.3
03:45 1024 30.24 853 25.19 -6.9 19.5 62 -13.1 8.5
03:50 1024 30.24 853 25.19 -7 19.5 60 -13.5 7.6
03:55 1024 30.24 853 25.19 -5.8 21.6 57 -13.1 8.5
04:00 1024 30.24 853 25.19 -5.8 21.6 58 -12.8 8.9
04:05 1024 30.24 853 25.19 -5.6 21.9 55 -13.4 7.9
04:10 1024 30.24 853 25.19 -6 21.2 60 -12.5 9.6
04:15 1024 30.24 853 25.19 -6.2 20.8 56 -13.5 7.7
04:20 1024 30.24 853 25.19 -5.8 21.5 57 -13 8.5
04:25 1024 30.24 853 25.19 -6.1 21 59 -12.8 8.9
04:30 1024 30.24 853 25.19 -6.1 21 57 -13.4 7.9
04:35 1024 30.24 853 25.19 -6 21.2 58 -13.1 8.5
04:40 1024 30.24 853 25.19 -5.9 21.4 55 -13.5 7.6
04:45 1024 30.24 853 25.19 -5.5 22 54 -13.3 8
04:50 1024 30.24 853 25.19 -5.5 22 54 -13.4 7.8
04:55 1024 30.24 853 25.19 -5.7 21.8 56 -13.2 8.3
05:00 1024 30.24 853 25.19 -6.2 20.8 57 -13.4 7.8
05:05 1024 30.24 853 25.19 -6.3 20.6 57 -13.4 7.8
05:10 1024 30.24 853 25.19 -6 21.2 55 -13.6 7.5
05:15 1024 30.24 853 25.19 -5.7 21.7 55 -13.3 8
05:20 1024 30.24 853 25.19 -6.2 20.9 57 -13.4 7.9
05:25 1024 30.24 853 25.19 -6.8 19.8 59 -13.4 7.8
05:30 1024 30.24 853 25.19 -6.8 19.7 58 -13.8 7.2
05:35 1024 30.24 853 25.19 -6.7 20 58 -13.6 7.5
05:40 1024 30.24 853 25.19 -6.6 20.2 57 -13.7 7.4
05:45 1024 30.24 853 25.19 -6.4 20.6 56 -13.7 7.4
05:50 1024 30.24 853 25.19 -6.3 20.6 56 -13.7 7.4
05:55 1024 30.24 853 25.19 -6.2 20.8 55 -13.9 7
06:00 1024 30.24 853 25.19 -6.3 20.7 56 -13.7 7.4
06:05 1024 30.24 853 25.19 -6.6 20.1 58 -13.6 7.5
06:10 1024 30.24 853 25.19 -6.9 19.6 60 -13.4 7.9
06:15 1024 30.24 853 25.19 -6.9 19.6 60 -13.5 7.7
06:20 1024 30.24 853 25.19 -6.6 20 58 -13.6 7.5
06:25 1024 30.24 853 25.19 -6.2 20.9 57 -13.4 7.9
06:30 1024 30.24 853 25.19 -6.2 20.9 58 -13.1 8.5
06:35 1024 30.24 853 25.19 -7 19.5 61 -13.4 7.9
06:40 1024 30.24 853 25.19 -7.2 19 61 -13.5 7.8
06:45 1024 30.24 853 25.19 -7.3 18.9 62 -13.4 7.9
06:50 1024 30.24 853 25.19 -7.1 19.3 59 -13.7 7.3
06:55 1024 30.24 853 25.19 -6.8 19.7 58 -13.8 7.2
07:00 1024 30.24 853 25.19 -6.5 20.3 56 -13.8 7.2
07:05 1024 30.24 853 25.19 -6.2 20.8 56 -13.7 7.3
07:10 1024 30.24 853 25.19 -5.7 21.8 56 -13.2 8.3
07:15 1024 30.24 853 25.19 -6.3 20.7 60 -12.9 8.8
07:20 1024 30.24 853 25.19 -6.9 19.5 62 -13.1 8.5
07:25 1024 30.24 853 25.19 -6.8 19.7 61 -13.1 8.4
07:30 1024 30.24 853 25.19 -6.5 20.2 56 -13.8 7.1
07:35 1024 30.24 853 25.19 -6 21.2 57 -13.1 8.4
07:40 1024 30.24 853 25.19 -6.4 20.5 58 -13.4 7.9
07:45 1024 30.24 853 25.19 -6.3 20.7 57 -13.5 7.6
07:50 1024 30.24 853 25.19 -5.8 21.6 55 -13.4 7.8
07:55 1024 30.24 853 25.19 -5.9 21.4 54 -13.7 7.4
08:00 1024 30.24 853 25.19 -6.1 21 55 -13.8 7.1
08:05 1024 30.24 853 25.19 -6.4 20.5 57 -13.5 7.7
08:10 1024 30.24 853 25.19 -6.9 19.7 57 -14 6.7
08:15 1024 30.24 853 25.19 -6.8 19.8 57 -14 6.8
08:20 1024 30.24 853 25.19 -6.9 19.6 58 -13.9 6.9
08:25 1024 30.24 854 25.22 -7 19.5 60 -13.4 7.9
08:30 1024 30.24 854 25.22 -6.9 19.5 58 -13.9 7
08:35 1024 30.24 854 25.22 -6.7 20 58 -13.7 7.3
08:40 1024 30.24 854 25.22 -6.6 20.1 59 -13.5 7.8
08:45 1024 30.24 854 25.22 -6.3 20.7 56 -13.6 7.6
08:50 1024 30.24 854 25.22 -6.4 20.4 56 -13.9 7
08:55 1025 30.27 854 25.22 -6.1 21 54 -14 6.7
09:00 1024 30.24 854 25.22 -5.6 22 51 -14.1 6.7
09:05 1025 30.27 854 25.22 -5.6 22 53 -13.7 7.3
09:10 1024 30.24 854 25.22 -5.8 21.5 55 -13.4 7.8
09:15 1025 30.27 854 25.22 -5.9 21.4 59 -12.6 9.4
09:20 1025 30.27 854 25.22 -5.8 21.5 55 -13.4 7.9
09:25 1025 30.27 854 25.22 -5.9 21.4 56 -13.2 8.2
09:30 1025 30.27 854 25.22 -5.8 21.6 55 -13.4 7.8
09:35 1025 30.27 854 25.22 -5.3 22.4 54 -13.3 8
09:40 1025 30.27 854 25.22 -5.1 22.8 54 -13 8.7
09:45 1025 30.27 854 25.22 -5.5 22.1 55 -13.1 8.4
09:50 1025 30.27 854 25.22 -5.5 22.1 54 -13.3 8
09:55 1025 30.27 854 25.22 -5.1 22.8 50 -13.9 7
10:00 1025 30.27 854 25.22 -4.6 23.6 50 -13.6 7.5
10:05 1025 30.27 854 25.22 -4.5 24 49 -13.8 7.2
10:10 1025 30.27 854 25.22 -4.2 24.4 48 -13.7 7.3
10:15 1025 30.27 854 25.22 -3.7 25.4 48 -13.2 8.2
10:20 1025 30.27 854 25.22 -3.2 26.2 46 -13.3 8.1
10:25 1025 30.27 854 25.22 -2.9 26.8 46 -12.9 8.8
10:30 1025 30.27 854 25.22 -2.5 27.5 44 -13.1 8.3
10:35 1025 30.27 854 25.22 -2.1 28.2 42 -13.5 7.7
10:40 1025 30.27 854 25.22 -1.9 28.6 41 -13.4 8
10:45 1025 30.27 854 25.22 -2 28.4 43 -12.9 8.8
10:50 1025 30.27 854 25.22 -2.2 28 43 -13.2 8.2
10:55 1025 30.27 854 25.22 -2.1 28.2 42 -13.4 7.9
11:00 1025 30.27 854 25.22 -1.8 28.7 40 -13.7 7.4
11:05 1025 30.27 854 25.22 -1.4 29.4 40 -13.5 7.8
11:10 1025 30.27 854 25.22 -1 30.3 37 -13.8 7.1
11:15 1025 30.27 854 25.22 -0.5 31 37 -13.4 7.8
11:20 1025 30.27 854 25.22 -1 30.2 38 -13.5 7.7
11:25 1025 30.27 854 25.22 -0.9 30.5 37 -13.7 7.4
11:30 1025 30.27 854 25.22 -0.6 30.9 37 -13.6 7.5
11:35 1025 30.27 854 25.22 -0.1 31.9 35 -13.9 7
11:40 1025 30.27 854 25.22 -0.2 31.7 35 -13.9 7
11:45 1025 30.27 854 25.22 -0.3 31.5 35 -13.9 6.9
11:50 1025 30.27 854 25.22 -0.3 31.4 37 -13.3 8.1
11:55 1025 30.27 854 25.22 -0.3 31.5 36 -13.7 7.4
12:00 1025 30.27 854 25.22 -0.5 31.2 37 -13.5 7.8
12:05 1025 30.27 854 25.22 -0.2 31.6 38 -12.9 8.7
12:10 1025 30.27 854 25.22 -0.1 31.9 37 -12.9 8.7
12:15 1025 30.27 854 25.22 0.2 32.3 37 -12.8 9
12:20 1025 30.27 854 25.22 0.3 32.6 37 -12.6 9.3
12:25 1025 30.27 854 25.22 1 33.7 35 -12.7 9.1
12:30 1025 30.27 854 25.22 1.2 34.2 34 -13 8.6
12:35 1025 30.27 854 25.22 1.4 34.5 34 -12.9 8.8
12:40 1024 30.24 854 25.22 1.6 34.8 33 -12.9 8.8
12:45 1024 30.24 854 25.22 1.2 34.2 35 -12.7 9.2
12:50 1024 30.24 854 25.22 1.4 34.6 35 -12.5 9.5
12:55 1024 30.24 854 25.22 1.2 34.1 34 -12.9 8.7
13:00 1024 30.24 854 25.22 1.9 35.4 33 -12.6 9.3
13:05 1024 30.24 854 25.22 1.9 35.4 35 -11.9 10.6
13:10 1024 30.24 853 25.19 1.6 34.8 35 -12.1 10.1
13:15 1024 30.24 853 25.19 1.6 34.8 37 -11.7 10.9
13:20 1024 30.24 853 25.19 2.2 36 35 -11.8 10.7
13:25 1024 30.24 853 25.19 2.3 36.1 34 -12 10.3
13:30 1024 30.24 853 25.19 1.9 35.3 35 -11.9 10.5
13:35 1024 30.24 853 25.19 1.7 35 37 -11.6 11.2
13:40 1024 30.24 853 25.19 2 35.6 36 -11.7 10.9
13:45 1024 30.24 853 25.19 2.3 36.1 34 -12.1 10.2
13:50 1024 30.24 853 25.19 2.5 36.5 33 -12 10.3
13:55 1024 30.24 853 25.19 2.7 36.9 32 -12.3 9.9
14:00 1024 30.24 853 25.19 3.4 38.2 32 -11.9 10.5
14:05 1024 30.24 853 25.19 3.8 38.8 33 -11.1 12.1
14:10 1024 30.24 853 25.19 3.7 38.7 34 -10.9 12.4
14:15 1024 30.24 853 25.19 3.7 38.6 32 -11.7 11
14:20 1023 30.21 853 25.19 3.8 38.9 31 -11.7 10.9
14:25 1023 30.21 853 25.19 4.1 39.3 31 -11.6 11.2
14:30 1023 30.21 853 25.19 2.1 35.8 34 -12.1 10.2
14:35 1023 30.21 853 25.19 1.2 34.2 35 -12.6 9.3
14:40 1023 30.21 853 25.19 1.5 34.7 36 -12.1 10.2
14:45 1023 30.21 853 25.19 1.8 35.2 36 -11.8 10.8
14:50 1023 30.21 853 25.19 1.9 35.5 34 -12.2 10
14:55 1023 30.21 853 25.19 1.9 35.5 36 -11.5 11.3
15:00 1023 30.21 852 25.16 1.9 35.5 37 -11.3 11.7
15:05 1023 30.21 852 25.16 1.9 35.5 38 -11.1 12
15:10 1023 30.21 852 25.16 1.8 35.2 39 -10.9 12.4
15:15 1023 30.21 852 25.16 1.7 35 38 -11.1 12.1
15:20 1023 30.21 852 25.16 1.6 34.8 41 -10.4 13.2
15:25 1023 30.21 852 25.16 1.3 34.3 43 -10.1 13.8
15:30 1023 30.21 852 25.16 1.1 34 44 -9.8 14.4
15:35 1023 30.21 852 25.16 1.1 34.1 44 -9.7 14.5
15:40 1023 30.21 853 25.19 1.1 34 45 -9.7 14.6
15:45 1023 30.21 853 25.19 1.1 34.1 45 -9.5 14.9
15:50 1023 30.21 853 25.19 1.3 34.3 43 -9.9 14.1
15:55 1023 30.21 852 25.16 1.6 34.9 42 -9.9 14.2
16:00 1023 30.21 853 25.19 2.1 35.7 41 -9.9 14.2
16:05 1023 30.21 853 25.19 2.4 36.4 37 -10.7 12.8
16:10 1023 30.21 852 25.16 3 37.3 34 -11.6 11.2
16:15 1023 30.21 852 25.16 3.4 38 33 -11.4 11.5
16:20 1023 30.21 852 25.16 4 39.1 31 -11.8 10.7
16:25 1023 30.21 852 25.16 4.4 39.9 29 -12.3 9.9
16:30 1023 30.21 852 25.16 4.5 40.2 28 -12.5 9.4
16:35 1023 30.21 852 25.16 5 40.9 27 -12.5 9.6
16:40 1023 30.21 853 25.19 4.9 40.8 28 -12.4 9.7
16:45 1023 30.21 853 25.19 4.8 40.7 28 -12.4 9.6
16:50 1023 30.21 853 25.19 5.4 41.7 28 -11.8 10.7
16:55 1023 30.21 853 25.19 5.7 42.2 25 -12.7 9.2
17:00 1023 30.21 853 25.19 5.7 42.3 26 -12.5 9.5
17:05 1023 30.21 853 25.19 5.7 42.2 26 -12.6 9.4
17:10 1024 30.24 853 25.19 5.3 41.6 26 -12.7 9.1
17:15 1024 30.24 853 25.19 4.5 40.2 27 -13.1 8.4
17:20 1024 30.24 853 25.19 3.9 39.1 27 -13.5 7.7
17:25 1024 30.24 853 25.19 3.8 38.8 30 -12.5 9.6
17:30 1024 30.24 853 25.19 3.9 39 30 -12 10.4
17:35 1024 30.24 853 25.19 3.8 38.8 32 -11.3 11.6
17:40 1024 30.24 853 25.19 3 37.4 35 -11.1 12.1
17:45 1024 30.24 853 25.19 2.6 36.7 36 -10.9 12.4
17:50 1024 30.24 853 25.19 2.4 36.3 36 -11.1 12.1
17:55 1024 30.24 853 25.19 2.5 36.6 37 -10.7 12.7
18:00 1024 30.24 853 25.19 2.6 36.7 40 -9.7 14.6
18:05 1024 30.24 853 25.19 2.5 36.5 42 -9.2 15.5
18:10 1024 30.24 853 25.19 2.5 36.6 43 -8.7 16.3
18:15 1024 30.24 853 25.19 2.4 36.3 46 -8 17.7
18:20 1024 30.24 853 25.19 2.1 35.7 46 -8.4 16.8
18:25 1024 30.24 853 25.19 2 35.5 43 -9.4 15
18:30 1024 30.24 853 25.19 2.2 36 45 -8.4 16.9
18:35 1024 30.24 853 25.19 2.2 36 43 -9 15.8
18:40 1024 30.24 853 25.19 2.1 35.8 42 -9.6 14.7
18:45 1024 30.24 853 25.19 2.2 36 44 -8.9 15.9
18:50 1024 30.24 853 25.19 2.2 35.9 45 -8.6 16.5
18:55 1024 30.24 853 25.19 1.9 35.4 42 -9.7 14.6
19:00 1024 30.24 853 25.19 1.9 35.4 42 -9.9 14.3
19:05 1024 30.24 853 25.19 1.8 35.3 44 -9.3 15.3
19:10 1024 30.24 853 25.19 1.9 35.4 42 -9.7 14.6
19:15 1024 30.24 853 25.19 2 35.5 44 -9.1 15.6
19:20 1024 30.24 854 25.22 2 35.6 42 -9.8 14.4
19:25 1025 30.27 854 25.22 2.1 35.7 39 -10.5 13.2
19:30 1025 30.27 854 25.22 2.1 35.8 45 -8.6 16.6
19:35 1025 30.27 854 25.22 1.9 35.4 47 -8.3 17
19:40 1025 30.27 854 25.22 2 35.5 40 -10.4 13.3
19:45 1025 30.27 854 25.22 2.2 35.9 37 -11 12.3
19:50 1025 30.27 854 25.22 2.4 36.4 35 -11.5 11.3
19:55 1025 30.27 854 25.22 2.5 36.4 37 -11 12.3
20:00 1025 30.27 854 25.22 2.5 36.5 35 -11.3 11.7
20:05 1025 30.27 854 25.22 2.3 36.1 40 -10 14.1
20:10 1025 30.27 854 25.22 2 35.7 43 -9.3 15.3
20:15 1025 30.27 854 25.22 2 35.7 46 -8.5 16.7
20:20 1025 30.27 854 25.22 2 35.6 46 -8.4 16.8
20:25 1025 30.27 854 25.22 2.1 35.7 44 -9 15.7
20:30 1025 30.27 854 25.22 2.1 35.7 46 -8.3 17.1
20:35 1025 30.27 854 25.22 2 35.6 45 -8.7 16.3
20:40 1025 30.27 854 25.22 1.7 35.1 51 -7.4 18.6
20:45 1025 30.27 854 25.22 1 33.8 53 -7.6 18.3
20:50 1025 30.27 854 25.22 0.8 33.4 53 -7.7 18.2
20:55 1025 30.27 855 25.25 1 33.7 52 -7.8 18
21:00 1025 30.27 854 25.22 1.1 33.9 52 -7.7 18.1
21:05 1025 30.27 854 25.22 1.1 34 53 -7.5 18.4
21:10 1025 30.27 855 25.25 1.1 34.1 52 -7.7 18.1
21:15 1025 30.27 855 25.25 1.2 34.2 51 -7.7 18.2
21:20 1025 30.27 854 25.22 1.3 34.4 52 -7.5 18.5
21:25 1025 30.27 855 25.25 1.5 34.6 51 -7.5 18.5
21:30 1025 30.27 855 25.25 1.4 34.6 53 -7.1 19.2
21:35 1026 30.3 855 25.25 1.1 33.9 54 -7.3 18.8
21:40 1026 30.3 855 25.25 1.2 34.1 52 -7.6 18.3
21:45 1026 30.3 855 25.25 1.4 34.6 50 -7.8 18
21:50 1026 30.3 855 25.25 1.5 34.7 51 -7.4 18.6
21:55 1026 30.3 855 25.25 1.4 34.6 51 -7.7 18.2
22:00 1026 30.3 855 25.25 1.5 34.7 50 -7.9 17.8
22:05 1026 30.3 855 25.25 1.6 34.9 50 -7.9 17.9
22:10 1026 30.3 855 25.25 1.7 35.1 49 -7.8 17.9
22:15 1026 30.3 855 25.25 1.8 35.3 49 -7.8 18
22:20 1026 30.3 855 25.25 1.7 35.1 50 -7.7 18.1
22:25 1026 30.3 855 25.25 1.7 35 50 -7.7 18.2
22:30 1026 30.3 855 25.25 1.7 35.1 50 -7.7 18.2
22:35 1026 30.3 855 25.25 1.8 35.2 50 -7.4 18.6
22:40 1026 30.3 855 25.25 1.9 35.3 51 -7.3 18.8
22:45 1026 30.3 855 25.25 1.8 35.3 51 -7.3 18.9
22:50 1026 30.3 855 25.25 1.7 35 53 -6.9 19.5
22:55 1026 30.3 855 25.25 1.4 34.5 54 -6.9 19.6
23:00 1026 30.3 855 25.25 1.2 34.2 53 -7.2 19
23:05 1026 30.3 855 25.25 1.3 34.4 53 -7.2 19.1
23:10 1026 30.3 855 25.25 1.6 34.8 54 -6.9 19.6
23:15 1026 30.3 855 25.25 1.6 34.9 53 -7 19.4
23:20 1026 30.3 855 25.25 1.7 35.1 53 -7 19.4
23:25 1026 30.3 855 25.25 1.8 35.2 52 -7.1 19.3
23:30 1026 30.3 855 25.25 1.8 35.2 52 -7.1 19.2
23:35 1026 30.3 855 25.25 1.9 35.3 52 -7 19.4
23:40 1026 30.3 855 25.25 1.8 35.3 53 -6.9 19.7
23:45 1026 30.3 855 25.25 1.8 35.2 52 -7.1 19.2
23:50 1026 30.3 855 25.25 1.8 35.3 52 -7 19.4
23:55 1026 30.3 855 25.25 1.8 35.2 52 -7 19.4
24:00 1026 30.3 855 25.25 1.9 35.4 51 -7.3 18.9